Time;durP1;ratioP1;P1;durP2;ratioP2;P2;SDS_P1;SDS_P2;PMS_P1;PMS_P2;Temp;Humidity;BMP_temperature;BMP_pressure;BME280_temperature;BME280_humidity;BME280_pressure;Samples;Min_cycle;Max_cycle;Signal;HPM_P1;HPM_P2
2020/12/24 00:02:08;;;;;;;20.67;11.67;;;;;;;3.73;100.00;96753.44;4976868;28;20248;-90
2020/12/24 00:04:35;;;;;;;13.70;10.67;;;;;;;3.68;100.00;96740.78;4977091;28;20228;-90
2020/12/24 00:07:02;;;;;;;15.90;11.17;;;;;;;3.65;100.00;96760.94;4976849;28;20201;-90
2020/12/24 00:09:29;;;;;;;14.60;11.30;;;;;;;3.73;100.00;96751.69;4977006;28;20259;-90
2020/12/24 00:11:56;;;;;;;17.43;11.97;;;;;;;3.62;100.00;96750.75;4977297;28;20208;-89
2020/12/24 00:14:23;;;;;;;14.83;11.03;;;;;;;3.54;100.00;96752.09;4976864;28;20197;-90
2020/12/24 00:16:50;;;;;;;20.93;12.87;;;;;;;3.63;100.00;96758.44;4976554;28;20208;-89
2020/12/24 00:19:17;;;;;;;14.30;11.17;;;;;;;3.73;100.00;96759.47;4976658;28;20205;-90
2020/12/24 00:21:44;;;;;;;15.83;10.90;;;;;;;3.70;100.00;96751.06;4976288;28;20260;-90
2020/12/24 00:24:11;;;;;;;13.53;9.97;;;;;;;3.70;100.00;96761.47;4976387;28;20224;-91
2020/12/24 00:26:39;;;;;;;13.67;10.50;;;;;;;3.73;100.00;96767.28;4976447;28;20208;-90
2020/12/24 00:29:08;;;;;;;11.33;9.33;;;;;;;3.61;100.00;96767.28;4976322;28;20687;-90
2020/12/24 00:31:35;;;;;;;12.77;9.90;;;;;;;3.62;100.00;96776.75;4976633;28;20613;-90
2020/12/24 00:34:03;;;;;;;12.57;9.07;;;;;;;3.49;100.00;96780.16;4976239;28;20197;-89
2020/12/24 00:36:30;;;;;;;10.67;8.90;;;;;;;3.65;100.00;96776.56;4976560;28;20204;-90
2020/12/24 00:38:57;;;;;;;11.50;9.03;;;;;;;3.56;100.00;96773.59;4976235;28;20216;-90
2020/12/24 00:41:24;;;;;;;11.00;8.23;;;;;;;3.66;100.00;96766.03;4976514;28;20280;-91
2020/12/24 00:43:52;;;;;;;10.93;8.77;;;;;;;3.80;100.00;96778.09;4976967;28;20208;-90
2020/12/24 00:46:20;;;;;;;10.33;8.30;;;;;;;3.83;100.00;96785.69;4976434;28;20268;-90
2020/12/24 00:48:47;;;;;;;10.23;8.10;;;;;;;3.83;100.00;96785.69;4976266;28;20582;-90
2020/12/24 00:51:13;;;;;;;10.90;8.67;;;;;;;3.78;100.00;96778.22;4976227;28;20280;-91
2020/12/24 00:53:41;;;;;;;12.07;7.77;;;;;;;3.68;100.00;96774.56;4976363;28;20240;-89
2020/12/24 00:56:10;;;;;;;11.67;7.57;;;;;;;3.69;100.00;96767.59;4976812;28;20228;-91
2020/12/24 00:58:37;;;;;;;10.83;7.53;;;;;;;3.67;100.00;96764.25;4975905;28;20239;-91
2020/12/24 01:01:06;;;;;;;15.20;9.03;;;;;;;3.78;100.00;96761.78;4975790;28;20208;-91
2020/12/24 01:03:33;;;;;;;10.90;8.07;;;;;;;3.73;100.00;96769.06;4975325;28;20197;-91
2020/12/24 01:06:00;;;;;;;11.07;8.03;;;;;;;3.72;100.00;96767.41;4959041;28;20768;-91
2020/12/24 01:08:26;;;;;;;11.37;8.33;;;;;;;3.74;100.00;96761.16;4976056;28;20694;-91
2020/12/24 01:10:53;;;;;;;11.00;8.47;;;;;;;3.95;100.00;96758.00;4975781;28;20674;-91
2020/12/24 01:13:20;;;;;;;8.90;7.43;;;;;;;3.88;100.00;96765.44;4975751;28;20197;-92
2020/12/24 01:15:47;;;;;;;9.33;6.97;;;;;;;3.80;100.00;96765.91;4976023;28;20228;-91
2020/12/24 01:18:15;;;;;;;11.30;8.43;;;;;;;3.83;100.00;96767.50;4975781;28;20197;-91
2020/12/24 01:20:42;;;;;;;12.03;7.83;;;;;;;3.79;100.00;96764.28;4975675;28;20748;-91
2020/12/24 01:23:08;;;;;;;10.17;8.07;;;;;;;3.73;100.00;96763.84;4975690;28;20217;-91
2020/12/24 01:25:35;;;;;;;12.77;8.13;;;;;;;3.67;100.00;96759.06;4975557;28;20267;-92
2020/12/24 01:28:02;;;;;;;9.73;8.33;;;;;;;3.76;100.00;96756.69;4975648;28;20647;-92
2020/12/24 01:30:29;;;;;;;11.83;10.13;;;;;;;3.84;100.00;96756.16;4975548;28;20208;-91
2020/12/24 01:32:56;;;;;;;9.37;7.43;;;;;;;3.80;100.00;96750.31;4975256;28;20212;-91
2020/12/24 01:35:24;;;;;;;11.53;7.23;;;;;;;3.95;100.00;96758.88;4975422;28;20197;-91
2020/12/24 01:37:51;;;;;;;9.30;7.17;;;;;;;3.87;100.00;96753.34;4975365;28;20613;-90
2020/12/24 01:40:17;;;;;;;7.77;6.20;;;;;;;3.91;100.00;96754.78;4975880;28;20733;-90
2020/12/24 01:42:44;;;;;;;10.83;7.77;;;;;;;3.88;100.00;96742.03;4975369;28;20599;-90
2020/12/24 01:45:11;;;;;;;9.73;7.63;;;;;;;3.93;100.00;96742.53;4975060;28;20229;-91
2020/12/24 01:47:38;;;;;;;10.20;7.87;;;;;;;4.12;100.00;96736.03;4975241;28;20200;-90
2020/12/24 01:50:05;;;;;;;12.73;8.40;;;;;;;4.03;100.00;96730.53;4975314;28;20197;-90
2020/12/24 01:52:36;;;;;;;10.27;8.20;;;;;;;4.03;100.00;96735.75;4975084;28;20205;-91
2020/12/24 01:55:06;;;;;;;13.87;10.03;;;;;;;3.91;100.00;96730.56;4975157;28;20217;-91
2020/12/24 01:57:33;;;;;;;17.37;12.13;;;;;;;3.85;100.00;96721.44;4975389;28;20193;-91
2020/12/24 02:00:00;;;;;;;19.20;12.20;;;;;;;3.77;100.00;96721.09;4974273;28;20193;-90
2020/12/24 02:02:27;;;;;;;11.43;9.37;;;;;;;3.65;100.00;96716.75;4974789;28;20264;-90
2020/12/24 02:04:54;;;;;;;10.70;8.37;;;;;;;3.72;100.00;96712.81;4974626;28;20221;-90
2020/12/24 02:07:21;;;;;;;9.93;8.27;;;;;;;3.66;100.00;96719.25;4974679;28;20241;-91
2020/12/24 02:09:50;;;;;;;12.67;8.77;;;;;;;3.75;100.00;96717.78;4975235;28;20193;-91
2020/12/24 02:12:18;;;;;;;8.90;7.93;;;;;;;3.74;100.00;96716.13;4974532;28;20197;-90
2020/12/24 02:14:45;;;;;;;10.97;7.90;;;;;;;3.68;100.00;96712.19;4974918;28;20580;-91
2020/12/24 02:17:12;;;;;;;9.47;8.33;;;;;;;3.67;100.00;96709.66;4975031;28;20236;-90
2020/12/24 02:19:40;;;;;;;11.07;7.83;;;;;;;3.58;100.00;96711.97;4975081;28;20205;-91
2020/12/24 02:22:09;;;;;;;17.77;11.73;;;;;;;3.54;100.00;96712.28;4974540;28;20228;-91
2020/12/24 02:24:36;;;;;;;21.97;17.40;;;;;;;3.55;100.00;96711.34;4974537;28;20229;-90
2020/12/24 02:27:04;;;;;;;13.63;10.53;;;;;;;3.63;100.00;96705.63;4974237;28;20288;-91
2020/12/24 02:29:31;;;;;;;12.67;7.87;;;;;;;3.71;100.00;96705.94;4974615;28;20205;-90
2020/12/24 02:31:58;;;;;;;9.63;7.87;;;;;;;4.04;100.00;96707.97;4974379;28;20201;-89
2020/12/24 02:34:25;;;;;;;9.20;7.00;;;;;;;4.14;100.00;96708.97;4974296;28;20193;-90
2020/12/24 02:36:52;;;;;;;10.23;8.43;;;;;;;4.15;100.00;96712.41;4974245;28;20208;-90
2020/12/24 02:39:19;;;;;;;8.20;6.10;;;;;;;4.16;100.00;96716.69;4974210;28;20717;-89
2020/12/24 02:41:47;;;;;;;7.90;6.93;;;;;;;4.12;100.00;96721.28;4974016;28;20749;-90
2020/12/24 02:44:13;;;;;;;8.43;6.10;;;;;;;3.91;100.00;96720.16;4974078;28;20312;-90
2020/12/24 02:46:42;;;;;;;6.87;6.07;;;;;;;4.01;100.00;96721.19;4974281;28;20667;-89
2020/12/24 02:49:09;;;;;;;7.67;6.37;;;;;;;4.24;100.00;96723.00;4974355;28;20244;-90
2020/12/24 02:51:36;;;;;;;7.60;6.80;;;;;;;4.09;100.00;96729.28;4974581;28;20197;-90
2020/12/24 02:54:03;;;;;;;14.57;9.33;;;;;;;4.04;100.00;96739.16;4974569;28;20197;-90
2020/12/24 02:56:30;;;;;;;17.17;11.20;;;;;;;3.98;100.00;96734.38;4973939;28;20201;-91
2020/12/24 02:58:57;;;;;;;44.00;21.90;;;;;;;3.91;100.00;96743.56;4974633;28;20205;-90
2020/12/24 03:01:24;;;;;;;21.13;12.57;;;;;;;3.80;100.00;96728.69;4974371;28;20233;-91
2020/12/24 03:03:51;;;;;;;14.03;9.03;;;;;;;3.79;100.00;96727.88;4974297;28;20649;-90
2020/12/24 03:06:18;;;;;;;11.60;8.47;;;;;;;3.74;100.00;96729.09;4973789;28;20224;-90
2020/12/24 03:08:45;;;;;;;10.97;7.70;;;;;;;3.69;100.00;96720.81;4973869;28;20205;-90
2020/12/24 03:11:12;;;;;;;12.17;7.73;;;;;;;3.65;100.00;96719.34;4975645;28;20240;-90
2020/12/24 03:13:40;;;;;;;13.40;10.03;;;;;;;3.83;100.00;96715.50;4977763;28;20260;-91
2020/12/24 03:16:07;;;;;;;13.50;9.00;;;;;;;3.76;100.00;96727.25;4977837;28;20197;-90
2020/12/24 03:18:33;;;;;;;12.93;9.27;;;;;;;3.71;100.00;96719.78;4977956;28;20247;-91
2020/12/24 03:21:00;;;;;;;11.97;8.77;;;;;;;3.68;100.00;96712.19;4977865;28;20252;-91
2020/12/24 03:23:27;;;;;;;10.00;8.07;;;;;;;3.64;100.00;96707.28;4977993;28;20232;-91
2020/12/24 03:25:54;;;;;;;11.97;7.67;;;;;;;3.64;100.00;96708.13;4977940;28;20229;-91
2020/12/24 03:28:21;;;;;;;14.47;7.57;;;;;;;3.70;100.00;96706.88;4977514;28;20292;-91
2020/12/24 03:30:48;;;;;;;9.77;7.67;;;;;;;3.73;100.00;96715.28;4977566;28;20201;-91
2020/12/24 03:33:15;;;;;;;13.63;7.23;;;;;;;3.74;100.00;96711.78;4977338;28;20244;-91
2020/12/24 03:35:42;;;;;;;9.33;7.77;;;;;;;3.66;100.00;96706.25;4977441;28;20321;-91
2020/12/24 03:38:09;;;;;;;13.13;10.60;;;;;;;3.65;100.00;96711.56;4977351;28;20208;-91
2020/12/24 03:40:36;;;;;;;16.77;11.37;;;;;;;3.65;100.00;96708.97;4977335;28;20201;-91
2020/12/24 03:43:03;;;;;;;15.10;9.77;;;;;;;3.58;100.00;96713.75;4977860;28;20204;-91
2020/12/24 03:45:30;;;;;;;12.60;9.40;;;;;;;3.75;100.00;96712.59;4977133;28;20224;-90
2020/12/24 03:47:58;;;;;;;16.80;12.53;;;;;;;3.42;100.00;96707.91;4977084;28;20256;-91
2020/12/24 03:50:25;;;;;;;12.17;9.63;;;;;;;3.47;100.00;96714.47;4977054;28;20209;-91
2020/12/24 03:52:51;;;;;;;10.20;8.57;;;;;;;3.50;100.00;96706.47;4977346;28;20205;-91
2020/12/24 03:55:18;;;;;;;12.57;8.80;;;;;;;3.43;100.00;96710.44;4977204;28;20197;-91
2020/12/24 03:57:45;;;;;;;37.93;31.23;;;;;;;3.32;100.00;96711.13;4977405;28;20240;-90
2020/12/24 04:00:12;;;;;;;14.57;10.23;;;;;;;3.41;100.00;96703.66;4977093;28;20216;-91
2020/12/24 04:02:39;;;;;;;10.60;8.13;;;;;;;3.44;100.00;96712.09;4976856;28;20201;-91
2020/12/24 04:05:07;;;;;;;11.97;7.13;;;;;;;3.33;100.00;96714.59;4976756;28;20221;-90
2020/12/24 04:07:34;;;;;;;11.60;8.17;;;;;;;3.29;100.00;96711.34;4976740;28;20264;-91
2020/12/24 04:10:00;;;;;;;8.90;7.97;;;;;;;3.38;100.00;96716.88;4977018;28;20579;-91
2020/12/24 04:12:27;;;;;;;11.43;8.23;;;;;;;3.32;100.00;96715.50;4976748;28;20205;-90
2020/12/24 04:14:54;;;;;;;13.27;8.57;;;;;;;3.39;100.00;96713.31;4976928;28;20284;-90
2020/12/24 04:17:21;;;;;;;19.07;14.63;;;;;;;3.15;100.00;96706.22;4976618;28;20212;-91
2020/12/24 04:19:48;;;;;;;22.20;17.63;;;;;;;3.16;100.00;96699.28;4976660;28;20197;-90
2020/12/24 04:22:16;;;;;;;24.97;18.73;;;;;;;3.48;100.00;96697.13;4976192;28;20244;-90
2020/12/24 04:24:43;;;;;;;32.37;27.77;;;;;;;3.47;100.00;96688.50;4976615;28;20220;-91
2020/12/24 04:27:09;;;;;;;17.43;14.07;;;;;;;3.57;100.00;96699.94;4976755;28;20208;-91
2020/12/24 04:29:36;;;;;;;15.77;11.90;;;;;;;3.44;100.00;96698.25;4976852;28;20307;-90
2020/12/24 04:32:03;;;;;;;15.90;13.17;;;;;;;3.39;100.00;96703.75;4976657;28;20205;-90
2020/12/24 04:34:31;;;;;;;17.17;14.03;;;;;;;3.17;100.00;96711.34;4959442;28;20232;-91
2020/12/24 04:36:58;;;;;;;22.73;18.30;;;;;;;3.08;100.00;96704.97;4976363;28;20240;-91
2020/12/24 04:39:26;;;;;;;19.30;14.70;;;;;;;3.12;100.00;96708.19;4976595;28;20197;-91
2020/12/24 04:41:53;;;;;;;13.13;10.87;;;;;;;3.20;100.00;96704.16;4976413;28;20201;-91
2020/12/24 04:44:20;;;;;;;10.50;8.40;;;;;;;3.23;100.00;96700.53;4976340;28;20636;-91
2020/12/24 04:46:49;;;;;;;10.37;8.20;;;;;;;3.41;100.00;96711.47;4976225;28;20197;-90
2020/12/24 04:49:17;;;;;;;10.60;7.70;;;;;;;3.38;100.00;96715.09;4976062;28;20193;-91
2020/12/24 04:51:46;;;;;;;13.47;8.33;;;;;;;3.44;100.00;96716.44;4976218;28;20197;-90
2020/12/24 04:54:14;;;;;;;14.53;8.57;;;;;;;3.56;100.00;96706.03;4976175;28;20233;-91
2020/12/24 04:56:42;;;;;;;10.10;8.20;;;;;;;3.68;100.00;96708.75;4976159;28;20189;-91
2020/12/24 04:59:09;;;;;;;11.23;8.63;;;;;;;3.71;100.00;96713.75;4976436;28;20631;-90
2020/12/24 05:01:36;;;;;;;12.67;10.50;;;;;;;3.60;100.00;96703.22;4975938;28;20689;-91
2020/12/24 05:04:03;;;;;;;18.23;13.10;;;;;;;3.58;100.00;96706.78;4975757;28;20670;-90
2020/12/24 05:06:30;;;;;;;14.47;11.73;;;;;;;3.57;100.00;96704.28;4975767;28;20216;-90
2020/12/24 05:08:58;;;;;;;27.77;19.80;;;;;;;3.45;100.00;96703.34;4975852;28;20205;-90
2020/12/24 05:11:27;;;;;;;22.23;16.70;;;;;;;3.41;100.00;96695.88;4975681;28;20689;-91
2020/12/24 05:13:55;;;;;;;17.00;10.97;;;;;;;3.59;100.00;96689.41;4976009;28;20205;-90
2020/12/24 05:16:23;;;;;;;10.80;9.13;;;;;;;3.49;100.00;96693.56;4975542;28;20201;-90
2020/12/24 05:18:50;;;;;;;15.93;12.80;;;;;;;3.69;100.00;96700.84;4975597;28;20256;-91
2020/12/24 05:21:33;;;;;;;20.37;15.40;;;;;;;3.67;100.00;96701.88;4975233;28;20279;-91
2020/12/24 05:24:00;;;;;;;18.30;14.53;;;;;;;3.47;100.00;96701.47;4975511;28;20193;-90
2020/12/24 05:26:30;;;;;;;17.07;13.43;;;;;;;3.43;100.00;96705.22;4975734;28;20268;-90
2020/12/24 05:29:11;;;;;;;13.73;11.70;;;;;;;3.46;100.00;96702.41;4975587;28;20197;-90
2020/12/24 05:31:38;;;;;;;12.80;11.43;;;;;;;3.43;100.00;96700.03;4975630;28;20215;-90
2020/12/24 05:34:05;;;;;;;14.83;10.60;;;;;;;3.32;100.00;96697.31;4974427;28;20193;-90
2020/12/24 05:36:31;;;;;;;11.97;10.00;;;;;;;3.32;100.00;96700.72;4975306;28;20197;-90
2020/12/24 05:38:58;;;;;;;11.73;9.63;;;;;;;3.31;100.00;96703.44;4975143;28;20201;-90
2020/12/24 05:41:33;;;;;;;12.90;9.27;;;;;;;3.40;100.00;96699.41;4975251;28;20210;-89
2020/12/24 05:44:02;;;;;;;11.07;8.57;;;;;;;3.32;100.00;96698.13;4975469;28;20619;-90
2020/12/24 05:46:38;;;;;;;8.83;7.57;;;;;;;3.36;100.00;96701.38;4975005;28;20225;-90
2020/12/24 05:49:13;;;;;;;9.67;8.13;;;;;;;3.41;100.00;96701.91;4975294;28;20642;-91
2020/12/24 05:51:40;;;;;;;11.17;7.33;;;;;;;3.53;100.00;96695.88;4975146;28;20185;-90
2020/12/24 05:54:07;;;;;;;11.33;7.87;;;;;;;3.61;100.00;96704.91;4974947;28;20201;-90
2020/12/24 05:56:37;;;;;;;10.47;8.10;;;;;;;3.60;100.00;96705.84;4975017;28;20279;-90
2020/12/24 05:59:08;;;;;;;11.77;8.27;;;;;;;3.56;100.00;96713.84;4975350;28;20256;-91
2020/12/24 06:01:40;;;;;;;10.47;7.77;;;;;;;3.58;100.00;96709.38;4975148;28;20200;-90
2020/12/24 06:04:08;;;;;;;13.10;9.87;;;;;;;3.51;100.00;96713.31;4974880;28;20194;-90
2020/12/24 06:06:48;;;;;;;35.40;26.50;;;;;;;3.58;100.00;96704.19;4974758;28;20612;-90
2020/12/24 06:09:19;;;;;;;11.90;9.80;;;;;;;3.69;100.00;96702.63;4974718;28;20189;-90
2020/12/24 06:11:51;;;;;;;14.03;9.47;;;;;;;3.78;100.00;96707.19;4975090;28;20190;-91
2020/12/24 06:14:33;;;;;;;13.43;8.77;;;;;;;3.70;100.00;96707.69;4974944;28;20643;-90
2020/12/24 06:17:06;;;;;;;17.73;12.97;;;;;;;3.65;100.00;96707.19;4974808;28;20193;-91
2020/12/24 06:19:40;;;;;;;18.47;14.37;;;;;;;3.71;100.00;96704.19;4974435;28;20205;-90
2020/12/24 06:22:08;;;;;;;21.47;16.10;;;;;;;3.75;100.00;96703.03;4974113;28;20371;-91
2020/12/24 06:24:39;;;;;;;18.17;14.53;;;;;;;3.78;100.00;96707.19;4974986;28;20225;-90
2020/12/24 06:27:12;;;;;;;22.53;17.77;;;;;;;3.73;100.00;96697.09;4974721;28;20197;-91
2020/12/24 06:29:46;;;;;;;28.57;18.73;;;;;;;3.71;100.00;96701.56;4975187;28;20275;-90
2020/12/24 06:32:18;;;;;;;27.67;21.23;;;;;;;3.72;100.00;96695.44;4974549;28;20225;-91
2020/12/24 06:34:45;;;;;;;31.80;24.60;;;;;;;3.83;100.00;96692.09;4974541;28;20193;-90
2020/12/24 06:37:13;;;;;;;29.63;25.83;;;;;;;3.76;100.00;96693.44;4974180;28;20240;-91
2020/12/24 06:39:42;;;;;;;36.27;28.63;;;;;;;3.85;100.00;96687.63;4974375;28;20217;-91
2020/12/24 06:42:43;;;;;;;33.00;28.60;;;;;;;3.94;100.00;96696.53;4974481;28;20220;-90
2020/12/24 06:45:13;;;;;;;34.10;25.33;;;;;;;3.91;100.00;96699.34;4973838;28;20204;-91
2020/12/24 06:47:40;;;;;;;39.33;26.90;;;;;;;3.82;100.00;96700.84;4974411;28;20212;-90
2020/12/24 06:50:36;;;;;;;58.03;40.63;;;;;;;3.81;100.00;96702.59;4974314;28;20197;-91
2020/12/24 06:53:23;;;;;;;94.27;70.17;;;;;;;3.96;100.00;96703.31;4974318;28;20211;-91
2020/12/24 06:56:19;;;;;;;91.57;66.27;;;;;;;4.02;100.00;96713.28;4974516;28;20205;-91
2020/12/24 06:58:47;;;;;;;83.43;62.20;;;;;;;4.11;100.00;96718.78;4974031;28;20201;-91
2020/12/24 07:01:16;;;;;;;53.83;42.37;;;;;;;4.17;100.00;96718.34;4974289;28;20627;-92
2020/12/24 07:03:43;;;;;;;36.90;31.60;;;;;;;4.16;100.00;96706.28;4974987;28;20227;-90
2020/12/24 07:06:11;;;;;;;16.83;12.83;;;;;;;4.37;100.00;96704.75;4974156;28;20239;-91
2020/12/24 07:08:48;;;;;;;57.27;45.00;;;;;;;4.55;100.00;96700.00;4974185;28;20198;-90
2020/12/24 07:11:44;;;;;;;37.10;30.67;;;;;;;4.06;100.00;96698.28;4974420;28;20207;-88
2020/12/24 07:14:27;;;;;;;15.70;12.67;;;;;;;4.12;100.00;96707.41;4930201;28;20306;-89
2020/12/24 07:16:56;;;;;;;30.03;22.87;;;;;;;3.98;100.00;96706.63;4974138;28;20267;-91
2020/12/24 07:19:24;;;;;;;40.10;32.07;;;;;;;4.04;100.00;96708.78;4974070;28;20233;-91
2020/12/24 07:21:52;;;;;;;30.40;25.33;;;;;;;4.24;100.00;96696.97;4973697;28;20243;-91
2020/12/24 07:24:28;;;;;;;23.97;19.33;;;;;;;4.56;100.00;96693.00;4974329;28;20205;-92
2020/12/24 07:26:56;;;;;;;23.60;19.80;;;;;;;4.67;100.00;96703.47;4974443;28;20220;-91
2020/12/24 07:29:26;;;;;;;22.40;16.80;;;;;;;4.77;100.00;96705.28;4974381;28;20193;-90
2020/12/24 07:31:54;;;;;;;15.07;11.87;;;;;;;5.07;100.00;96696.19;4974324;28;20670;-95
2020/12/24 07:34:25;;;;;;;20.83;18.60;;;;;;;5.34;100.00;96698.50;4974263;28;20203;-90
2020/12/24 07:39:33;;;;;;;39.43;30.03;;;;;;;5.60;100.00;96706.09;4973570;28;20201;-88
2020/12/24 07:42:00;;;;;;;26.73;22.03;;;;;;;5.71;100.00;96700.88;4973693;28;20241;-87
2020/12/24 07:44:27;;;;;;;27.90;22.53;;;;;;;6.04;100.00;96696.66;4973360;28;20757;-89
2020/12/24 07:47:04;;;;;;;31.13;24.77;;;;;;;6.28;100.00;96688.69;4973520;28;20237;-90
2020/12/24 07:49:31;;;;;;;38.20;29.80;;;;;;;6.31;100.00;96693.66;4973799;28;20289;-89
2020/12/24 07:51:59;;;;;;;32.03;24.00;;;;;;;6.23;100.00;96698.66;4973915;28;20204;-88
2020/12/24 07:54:28;;;;;;;26.03;22.67;;;;;;;6.45;100.00;96689.97;4973435;28;20264;-90
2020/12/24 07:56:55;;;;;;;25.47;21.80;;;;;;;6.53;100.00;96682.34;4974796;28;20200;-90
2020/12/24 07:59:22;;;;;;;18.33;14.37;;;;;;;6.56;100.00;96693.34;4977054;28;20201;-89
2020/12/24 08:01:50;;;;;;;22.43;18.20;;;;;;;6.66;100.00;96686.44;4976771;28;20232;-90
2020/12/24 08:04:18;;;;;;;22.60;16.27;;;;;;;6.73;100.00;96686.78;4976911;28;20737;-87
2020/12/24 08:06:45;;;;;;;25.23;18.40;;;;;;;6.75;100.00;96677.00;4976796;28;20233;-87
2020/12/24 08:09:13;;;;;;;22.93;19.40;;;;;;;6.88;100.00;96682.09;4976854;28;20252;-88
2020/12/24 08:11:41;;;;;;;28.33;23.37;;;;;;;6.61;100.00;96682.53;4976987;28;20252;-89
2020/12/24 08:14:16;;;;;;;25.30;22.13;;;;;;;6.53;100.00;96683.16;4976710;28;20720;-89
2020/12/24 08:16:43;;;;;;;31.30;28.00;;;;;;;6.57;100.00;96676.72;4976252;28;20211;-92
2020/12/24 08:19:15;;;;;;;26.27;22.83;;;;;;;6.70;100.00;96675.75;4976564;28;20201;-90
2020/12/24 08:21:57;;;;;;;25.67;19.43;;;;;;;6.91;100.00;96666.16;4976508;28;20717;-90
2020/12/24 08:24:25;;;;;;;25.23;21.97;;;;;;;6.91;100.00;96671.38;4976632;28;20189;-89
2020/12/24 08:26:52;;;;;;;28.97;25.87;;;;;;;7.00;100.00;96670.63;4976737;28;20280;-89
2020/12/24 08:29:20;;;;;;;30.00;25.67;;;;;;;7.14;100.00;96672.09;4976732;28;20200;-90
2020/12/24 08:31:53;;;;;;;29.43;24.27;;;;;;;7.33;100.00;96671.38;4976012;28;20292;-89
2020/12/24 08:34:20;;;;;;;23.77;20.83;;;;;;;7.55;100.00;96663.41;4976428;28;20212;-90
2020/12/24 08:36:54;;;;;;;41.57;28.43;;;;;;;7.62;100.00;96661.09;4976225;28;20555;-90
2020/12/24 08:39:21;;;;;;;26.03;18.40;;;;;;;7.32;100.00;96654.88;4976103;28;20263;-90
2020/12/24 08:41:56;;;;;;;22.27;17.37;;;;;;;7.33;100.00;96661.75;4975591;28;20201;-88
2020/12/24 08:44:25;;;;;;;26.33;22.17;;;;;;;7.56;100.00;96656.38;4976480;28;20214;-89
2020/12/24 08:47:05;;;;;;;23.80;20.13;;;;;;;7.67;100.00;96652.84;4976309;28;20243;-89
2020/12/24 08:49:33;;;;;;;24.40;21.53;;;;;;;7.77;100.00;96648.50;4976240;28;20300;-90
2020/12/24 08:52:11;;;;;;;20.97;18.77;;;;;;;7.94;100.00;96644.41;4976228;28;20197;-88
2020/12/24 08:54:39;;;;;;;22.23;17.97;;;;;;;7.97;100.00;96650.22;4976016;28;20181;-89
2020/12/24 08:57:12;;;;;;;19.57;16.80;;;;;;;8.02;100.00;96652.41;4976094;28;20647;-90
2020/12/24 08:59:39;;;;;;;22.77;19.53;;;;;;;7.97;100.00;96654.63;4975656;28;20208;-88
2020/12/24 09:02:23;;;;;;;22.47;18.53;;;;;;;8.04;100.00;96658.38;4975608;28;20200;-89
2020/12/24 09:06:03;;;;;;;;;;;;;;;;;;;;;
2020/12/24 09:30:36;;;;;;;19.83;14.73;;;;;;;8.48;100.00;96616.97;4664772;30;20753;-88
2020/12/24 09:33:13;;;;;;;23.83;17.60;;;;;;;8.55;100.00;96610.22;4822149;29;20209;-89
2020/12/24 09:35:45;;;;;;;20.97;15.47;;;;;;;8.54;100.00;96604.16;4841816;29;20229;-90
2020/12/24 09:38:16;;;;;;;26.10;21.00;;;;;;;8.55;100.00;96603.19;4841269;29;20277;-90
2020/12/24 09:40:45;;;;;;;38.57;30.50;;;;;;;8.53;100.00;96605.13;4841231;29;20202;-89
2020/12/24 09:43:15;;;;;;;31.13;23.53;;;;;;;8.48;100.00;96601.25;4841435;29;20405;-89
2020/12/24 09:45:45;;;;;;;38.83;28.63;;;;;;;8.51;100.00;96606.22;4841350;29;20626;-90
2020/12/24 09:48:13;;;;;;;28.30;21.23;;;;;;;8.42;100.00;96612.31;4878663;29;20197;-90
2020/12/24 09:50:45;;;;;;;28.77;21.73;;;;;;;8.29;100.00;96600.25;4955794;29;20202;-92
2020/12/24 09:53:12;;;;;;;27.90;20.30;;;;;;;8.27;100.00;96588.25;4955352;29;20207;-89
2020/12/24 09:55:45;;;;;;;28.10;21.03;;;;;;;8.41;100.00;96592.28;4955609;29;20245;-90
2020/12/24 09:58:12;;;;;;;29.47;22.10;;;;;;;8.51;100.00;96590.50;4955368;29;20202;-90
2020/12/24 10:00:45;;;;;;;30.53;20.93;;;;;;;8.71;100.00;96586.09;4958129;29;20244;-92
2020/12/24 10:03:13;;;;;;;30.73;21.77;;;;;;;8.75;100.00;96584.84;4958737;29;20202;-92
2020/12/24 10:05:43;;;;;;;31.13;22.97;;;;;;;8.73;100.00;96587.63;4954813;29;20299;-91
2020/12/24 10:08:10;;;;;;;73.57;49.43;;;;;;;8.82;100.00;96578.91;4955592;29;20209;-93
2020/12/24 10:10:40;;;;;;;60.00;42.43;;;;;;;8.81;100.00;96574.63;4955369;29;20201;-91
2020/12/24 10:13:15;;;;;;;55.33;41.47;;;;;;;8.92;100.00;96573.66;4955150;29;20248;-91
2020/12/24 10:15:45;;;;;;;42.37;33.27;;;;;;;9.06;100.00;96572.38;4955208;29;20229;-92
2020/12/24 10:18:13;;;;;;;36.70;27.63;;;;;;;10.04;100.00;96565.75;4954872;29;20205;-91
2020/12/24 10:20:40;;;;;;;25.67;19.67;;;;;;;10.30;100.00;96562.44;4954339;28;20198;-92
2020/12/24 10:23:10;;;;;;;24.53;18.97;;;;;;;10.93;100.00;96544.72;4936402;29;20586;-92
2020/12/24 10:25:43;;;;;;;15.03;11.97;;;;;;;10.93;100.00;96541.25;4935656;29;20288;-91
2020/12/24 10:28:10;;;;;;;20.67;14.50;;;;;;;11.30;100.00;96527.84;4935561;29;20291;-91
2020/12/24 10:30:37;;;;;;;18.43;14.20;;;;;;;11.82;100.00;96527.75;4935774;29;20209;-94
2020/12/24 10:33:17;;;;;;;14.13;10.47;;;;;;;12.41;100.00;96519.00;4935842;29;20676;-91
2020/12/24 10:35:44;;;;;;;12.27;10.97;;;;;;;12.07;100.00;96518.13;4935569;29;20198;-92
2020/12/24 10:38:11;;;;;;;14.00;11.67;;;;;;;11.94;100.00;96509.84;4935914;29;20198;-91
2020/12/24 10:40:40;;;;;;;18.67;15.27;;;;;;;11.88;100.00;96508.69;4935549;29;20194;-91
2020/12/24 10:43:07;;;;;;;21.50;15.73;;;;;;;12.01;100.00;96510.84;4936056;29;20198;-91
2020/12/24 10:45:34;;;;;;;18.83;15.50;;;;;;;11.99;100.00;96497.03;4935576;29;20234;-89
2020/12/24 10:48:25;;;;;;;19.20;15.87;;;;;;;11.92;100.00;96495.22;4936082;29;20209;-91
2020/12/24 10:54:04;;;;;;;24.97;19.47;;;;;;;13.03;100.00;96488.47;4934100;29;20206;-90
2020/12/24 10:56:31;;;;;;;21.90;17.43;;;;;;;12.70;100.00;96471.84;4935782;29;20271;-90
2020/12/24 10:59:00;;;;;;;23.27;18.93;;;;;;;12.61;100.00;96476.31;4935556;29;20213;-90
2020/12/24 11:01:27;;;;;;;24.30;18.50;;;;;;;12.89;100.00;96465.41;4935626;29;20664;-91
2020/12/24 11:03:55;;;;;;;28.67;22.10;;;;;;;13.20;100.00;96464.66;4935192;29;20261;-92
2020/12/24 11:06:23;;;;;;;28.17;18.93;;;;;;;13.39;100.00;96464.28;4935049;29;20222;-90
2020/12/24 11:08:52;;;;;;;28.07;21.60;;;;;;;12.82;100.00;96452.06;4936089;29;20285;-91
2020/12/24 11:11:21;;;;;;;23.27;18.80;;;;;;;12.71;100.00;96454.19;4935226;29;20673;-91
2020/12/24 11:13:54;;;;;;;21.90;19.07;;;;;;;12.64;100.00;96451.41;4935891;29;20581;-91
2020/12/24 11:16:25;;;;;;;28.13;19.37;;;;;;;12.53;100.00;96446.47;4935331;29;20245;-91
2020/12/24 11:18:56;;;;;;;25.67;20.00;;;;;;;12.46;100.00;96446.31;4935507;29;20579;-91
2020/12/24 11:21:26;;;;;;;30.20;22.07;;;;;;;12.85;100.00;96437.72;4940880;29;20272;-91
2020/12/24 11:23:56;;;;;;;23.07;18.57;;;;;;;12.99;100.00;96434.38;4954718;29;20216;-90
2020/12/24 11:26:26;;;;;;;24.80;18.93;;;;;;;13.33;100.00;96433.28;4954466;29;20226;-91
2020/12/24 11:28:53;;;;;;;23.63;19.33;;;;;;;13.13;100.00;96426.72;4954744;29;20241;-90
2020/12/24 11:31:24;;;;;;;24.83;20.23;;;;;;;13.07;100.00;96426.44;4955086;28;20202;-91
2020/12/24 11:33:51;;;;;;;24.77;17.60;;;;;;;12.63;100.00;96425.22;4956507;29;20671;-91
2020/12/24 11:36:20;;;;;;;24.00;17.57;;;;;;;12.93;100.00;96416.59;4955947;29;20208;-92
2020/12/24 11:38:48;;;;;;;22.03;16.90;;;;;;;12.70;100.00;96416.47;4957392;29;20208;-92
2020/12/24 11:41:16;;;;;;;23.10;18.07;;;;;;;12.58;100.00;96423.09;4957987;29;20209;-92
2020/12/24 11:43:43;;;;;;;28.63;19.07;;;;;;;12.22;100.00;96419.97;4957730;29;20670;-90
2020/12/24 11:46:10;;;;;;;24.40;19.43;;;;;;;11.87;100.00;96414.03;4957999;29;20225;-91
2020/12/24 11:48:37;;;;;;;30.37;22.23;;;;;;;11.63;100.00;96415.59;4957705;29;20687;-91
2020/12/24 11:51:06;;;;;;;26.20;19.83;;;;;;;12.37;100.00;96405.16;4958170;29;20227;-91
2020/12/24 11:53:36;;;;;;;26.37;21.07;;;;;;;12.97;100.00;96396.78;4957898;29;20206;-91
2020/12/24 11:56:03;;;;;;;24.50;20.27;;;;;;;13.57;100.00;96392.72;4957969;29;20209;-92
2020/12/24 11:58:30;;;;;;;28.53;23.20;;;;;;;13.87;100.00;96401.63;4958089;29;20206;-91
2020/12/24 12:00:57;;;;;;;21.37;16.13;;;;;;;13.60;100.00;96388.94;4958203;29;20212;-91